Time;durP1;ratioP1;P1;durP2;ratioP2;P2;SDS_P1;SDS_P2;PMS_P1;PMS_P2;Temp;Humidity;BMP_temperature;BMP_pressure;BME280_temperature;BME280_humidity;BME280_pressure;Samples;Min_cycle;Max_cycle;Signal;HPM_P1;HPM_P2
2021/10/07 00:00:37;;;;;;;;;4.75;4.00;;;;;14.28;64.65;102343.47;4951930;28;45325;-60
2021/10/07 00:03:02;;;;;;;;;9.25;5.00;;;;;14.25;64.56;102340.97;4954863;28;46188;-62
2021/10/07 00:05:29;;;;;;;;;7.25;5.50;;;;;14.23;64.81;102346.38;4952313;28;45409;-62
2021/10/07 00:07:55;;;;;;;;;6.00;3.25;;;;;14.20;64.97;102341.19;4952440;28;45320;-62
2021/10/07 00:10:21;;;;;;;;;7.00;3.25;;;;;14.13;65.06;102345.06;4952996;28;45168;-64
2021/10/07 00:12:47;;;;;;;;;6.00;4.50;;;;;14.15;65.10;102350.31;4953716;28;45482;-62
2021/10/07 00:15:12;;;;;;;;;3.00;1.50;;;;;14.16;65.42;102358.19;4952942;28;45238;-60
2021/10/07 00:17:38;;;;;;;;;4.25;3.75;;;;;14.18;65.12;102360.75;4952340;28;45222;-61
2021/10/07 00:20:09;;;;;;;;;3.25;2.75;;;;;14.19;64.97;102354.53;4955117;28;45355;-61
2021/10/07 00:22:35;;;;;;;;;5.50;4.75;;;;;14.19;65.15;102354.53;4952150;28;46121;-61
2021/10/07 00:25:01;;;;;;;;;4.25;3.00;;;;;14.19;65.08;102357.19;4953002;28;45373;-64
2021/10/07 00:27:27;;;;;;;;;2.75;2.00;;;;;14.17;65.28;102359.91;4950981;28;45447;-61
2021/10/07 00:29:57;;;;;;;;;4.75;4.75;;;;;14.15;64.99;102363.56;4953278;28;45418;-63
2021/10/07 00:32:26;;;;;;;;;5.75;4.25;;;;;14.13;65.40;102363.63;4953438;28;46302;-63
2021/10/07 00:40:34;;;;;;;;;3.25;2.50;;;;;14.10;65.37;102363.78;4952173;28;45311;-64
2021/10/07 00:43:00;;;;;;;;;1.00;1.00;;;;;14.06;65.42;102358.69;4953353;28;45394;-63
2021/10/07 00:45:25;;;;;;;;;4.00;3.00;;;;;14.03;65.54;102359.72;4952344;28;45371;-62
2021/10/07 00:47:51;;;;;;;;;3.00;3.00;;;;;14.03;65.49;102369.44;4952559;28;45357;-61
2021/10/07 00:50:16;;;;;;;;;2.75;2.00;;;;;14.00;65.76;102364.31;4954073;28;45413;-62
2021/10/07 00:52:42;;;;;;;;;4.00;3.00;;;;;13.99;65.57;102373.19;4952764;28;45421;-62
2021/10/07 00:55:11;;;;;;;;;4.50;3.00;;;;;13.97;65.56;102367.94;4950507;28;45309;-63
2021/10/07 00:57:37;;;;;;;;;2.50;2.25;;;;;13.96;65.79;102371.53;4954777;28;45279;-63
2021/10/07 01:00:03;;;;;;;;;3.50;3.00;;;;;13.94;65.94;102365.44;4951951;28;45233;-63
2021/10/07 01:02:29;;;;;;;;;2.25;2.25;;;;;13.94;65.84;102370.75;4950803;28;46349;-62
2021/10/07 01:04:55;;;;;;;;;2.50;1.75;;;;;13.94;66.01;102365.44;4953020;28;45311;-63
2021/10/07 01:07:22;;;;;;;;;4.25;2.00;;;;;13.94;66.02;102362.78;4952408;28;45349;-63
2021/10/07 01:09:47;;;;;;;;;2.50;2.50;;;;;13.91;65.94;102362.97;4952736;28;45324;-62
2021/10/07 01:12:13;;;;;;;;;3.25;2.00;;;;;13.86;66.08;102365.81;4950421;28;45305;-62
2021/10/07 01:14:52;;;;;;;;;3.00;3.00;;;;;13.85;66.12;102364.09;4951866;28;45541;-61
2021/10/07 01:17:22;;;;;;;;;4.00;2.00;;;;;13.85;66.08;102356.16;4951553;28;45325;-61
2021/10/07 01:19:50;;;;;;;;;3.75;2.00;;;;;13.83;66.22;102355.38;4952859;28;45613;-63
2021/10/07 01:22:18;;;;;;;;;7.25;4.25;;;;;13.83;66.19;102365.09;4950589;28;47091;-62
2021/10/07 01:24:44;;;;;;;;;3.00;3.00;;;;;13.81;66.21;102362.50;4952241;28;45504;-62
2021/10/07 01:27:10;;;;;;;;;4.00;2.25;;;;;13.79;66.16;102355.56;4950640;28;45512;-62
2021/10/07 01:29:37;;;;;;;;;5.00;3.00;;;;;13.78;66.21;102357.38;4952509;28;45667;-61
2021/10/07 01:32:04;;;;;;;;;2.75;2.75;;;;;13.76;66.33;102353.94;4951449;28;45637;-64
2021/10/07 01:34:30;;;;;;;;;3.00;1.00;;;;;13.75;66.42;102356.66;4949698;28;45318;-62
2021/10/07 01:36:57;;;;;;;;;3.75;2.00;;;;;13.73;66.33;102359.34;4951034;28;45488;-63
2021/10/07 01:39:23;;;;;;;;;3.00;2.00;;;;;13.74;66.51;102361.06;4952215;28;45167;-62
2021/10/07 01:41:50;;;;;;;;;2.25;2.25;;;;;13.75;66.65;102361.97;4951937;28;46194;-64
2021/10/07 01:44:21;;;;;;;;;4.50;3.00;;;;;13.74;66.68;102361.06;4948372;28;45306;-64
2021/10/07 01:46:47;;;;;;;;;4.75;3.00;;;;;13.71;66.50;102361.22;4960249;28;45594;-64
2021/10/07 01:49:13;;;;;;;;;3.00;3.00;;;;;13.71;66.53;102358.56;4961690;28;45206;-63
2021/10/07 01:51:39;;;;;;;;;7.75;4.25;;;;;13.69;66.85;102353.34;4961158;28;46061;-63
2021/10/07 01:54:05;;;;;;;;;4.25;2.75;;;;;13.69;66.76;102355.16;4955696;28;45395;-63
2021/10/07 01:56:31;;;;;;;;;5.00;3.00;;;;;13.69;66.97;102360.44;4960830;28;45452;-63
2021/10/07 01:58:57;;;;;;;;;6.50;4.00;;;;;13.65;66.75;102364.16;4958523;28;45695;-62
2021/10/07 02:01:23;;;;;;;;;6.25;5.75;;;;;13.61;67.06;102363.44;4946852;28;46105;-62
2021/10/07 02:03:48;;;;;;;;;3.50;3.25;;;;;13.56;67.22;102360.13;4943174;28;45337;-63
2021/10/07 02:06:14;;;;;;;;;5.75;3.00;;;;;13.54;67.10;102358.50;4960402;28;45470;-62
2021/10/07 02:08:40;;;;;;;;;5.00;3.50;;;;;13.55;67.24;102353.13;4942217;28;45524;-63
2021/10/07 02:11:06;;;;;;;;;4.75;3.25;;;;;13.55;67.26;102354.91;4942137;28;46048;-62
2021/10/07 02:13:32;;;;;;;;;7.25;2.75;;;;;13.54;67.04;102351.41;4942630;28;45346;-62
2021/10/07 02:16:00;;;;;;;;;5.75;4.50;;;;;13.55;67.22;102345.19;4942366;28;45222;-63
2021/10/07 02:18:26;;;;;;;;;4.50;4.00;;;;;13.55;67.30;102350.47;4947947;28;45451;-63
2021/10/07 02:20:53;;;;;;;;;3.75;3.00;;;;;13.55;67.28;102352.28;4961611;28;46019;-63
2021/10/07 02:23:18;;;;;;;;;4.75;3.00;;;;;13.52;67.15;102353.28;4962422;28;45341;-62
2021/10/07 02:25:44;;;;;;;;;5.25;3.00;;;;;13.51;67.47;102343.63;4965115;28;45270;-62
2021/10/07 02:28:09;;;;;;;;;2.75;2.75;;;;;13.52;67.50;102347.13;4965505;28;45405;-62
2021/10/07 02:30:35;;;;;;;;;3.00;3.00;;;;;13.52;67.55;102340.03;4964743;28;46541;-62
2021/10/07 02:33:01;;;;;;;;;2.50;2.50;;;;;13.54;67.57;102340.81;4963954;28;45435;-62
2021/10/07 02:35:27;;;;;;;;;4.75;3.25;;;;;13.54;67.71;102338.19;4951619;28;45781;-62
2021/10/07 02:37:52;;;;;;;;;3.00;1.00;;;;;13.54;67.69;102340.81;4945949;28;45220;-62
2021/10/07 02:40:18;;;;;;;;;6.00;3.75;;;;;13.54;67.57;102342.63;4952601;28;45531;-62
2021/10/07 02:42:45;;;;;;;;;6.00;3.00;;;;;13.53;67.47;102344.41;4953299;28;45320;-62
2021/10/07 02:45:13;;;;;;;;;4.25;3.50;;;;;13.50;67.71;102339.22;4958918;28;45278;-62
2021/10/07 02:47:39;;;;;;;;;6.50;4.00;;;;;13.48;67.67;102345.53;4964597;28;45456;-63
2021/10/07 02:50:07;;;;;;;;;4.50;2.50;;;;;13.45;67.62;102346.53;4964695;28;46171;-63
2021/10/07 02:52:32;;;;;;;;;6.75;4.00;;;;;13.42;67.78;102346.66;4958518;28;45245;-63
2021/10/07 02:54:58;;;;;;;;;5.50;4.00;;;;;13.40;67.86;102343.25;4964739;28;45245;-63
2021/10/07 02:57:24;;;;;;;;;6.00;3.00;;;;;13.38;67.88;102335.38;4964948;28;45291;-63
2021/10/07 02:59:49;;;;;;;;;5.50;4.00;;;;;13.36;68.07;102336.38;4964576;28;45961;-63
2021/10/07 03:02:15;;;;;;;;;2.25;2.00;;;;;13.31;68.00;102344.53;4964625;28;45671;-63
2021/10/07 03:04:44;;;;;;;;;7.75;4.00;;;;;13.28;68.04;102341.16;4964497;28;45513;-64
2021/10/07 03:07:11;;;;;;;;;2.50;2.50;;;;;13.26;68.09;102345.66;4965071;28;45612;-63
2021/10/07 03:09:40;;;;;;;;;3.75;2.75;;;;;13.22;68.07;102342.28;4965027;28;45405;-63
2021/10/07 03:12:07;;;;;;;;;4.75;4.00;;;;;13.22;68.50;102352.88;4964591;28;45365;-64
2021/10/07 03:14:33;;;;;;;;;4.75;4.00;;;;;13.20;68.17;102346.81;4964559;28;45423;-63
2021/10/07 03:16:59;;;;;;;;;4.75;4.25;;;;;13.19;68.46;102350.31;4964500;28;45507;-64
2021/10/07 03:19:24;;;;;;;;;6.00;3.50;;;;;13.19;68.24;102346.81;4964272;28;45744;-63
2021/10/07 03:21:50;;;;;;;;;5.00;3.75;;;;;13.18;68.41;102350.38;4964352;28;45301;-63
2021/10/07 03:24:15;;;;;;;;;3.50;3.50;;;;;13.17;68.33;102349.53;4964562;28;45274;-63
2021/10/07 03:26:42;;;;;;;;;3.75;3.00;;;;;13.14;68.37;102358.47;4964504;28;45226;-63
2021/10/07 03:29:07;;;;;;;;;9.00;4.25;;;;;13.13;68.54;102354.09;4964164;28;46003;-63
2021/10/07 03:31:33;;;;;;;;;8.25;3.50;;;;;13.12;68.82;102356.84;4963862;28;45231;-63
2021/10/07 03:33:59;;;;;;;;;8.00;3.50;;;;;13.11;68.77;102360.38;4963188;28;45187;-63
2021/10/07 03:36:25;;;;;;;;;4.75;3.25;;;;;13.09;68.93;102360.44;4963904;28;45350;-63
2021/10/07 03:38:50;;;;;;;;;3.75;2.50;;;;;13.08;68.91;102357.88;4963693;28;45375;-64
2021/10/07 03:41:16;;;;;;;;;4.00;3.25;;;;;13.08;69.11;102363.16;4962534;28;45433;-64
2021/10/07 03:43:42;;;;;;;;;3.25;3.00;;;;;13.08;69.28;102369.31;4944768;28;45254;-64
2021/10/07 03:46:08;;;;;;;;;5.50;4.00;;;;;13.08;69.09;102369.31;4944638;28;45438;-63
2021/10/07 03:48:33;;;;;;;;;4.75;2.75;;;;;13.09;68.98;102373.69;4944373;28;45442;-64
2021/10/07 03:50:59;;;;;;;;;6.00;4.00;;;;;13.09;69.01;102372.81;4945094;28;45270;-63
2021/10/07 03:53:27;;;;;;;;;4.00;3.25;;;;;13.08;69.04;102376.41;4964118;28;45310;-64
2021/10/07 03:55:52;;;;;;;;;3.00;3.00;;;;;13.09;69.06;102367.53;4944937;28;45215;-64
2021/10/07 03:58:18;;;;;;;;;5.00;3.00;;;;;13.08;68.80;102369.31;4944376;28;45251;-64
2021/10/07 04:00:43;;;;;;;;;4.50;3.00;;;;;13.07;69.03;102377.31;4944192;28;45283;-63
2021/10/07 04:03:09;;;;;;;;;5.75;4.25;;;;;13.04;68.90;102374.81;4944306;28;45163;-63
2021/10/07 04:05:35;;;;;;;;;5.50;4.50;;;;;12.99;68.99;102382.09;4944582;28;45366;-64
2021/10/07 04:08:00;;;;;;;;;9.00;6.75;;;;;12.96;69.07;102385.75;4944117;28;45817;-63
2021/10/07 04:10:26;;;;;;;;;8.75;4.00;;;;;12.92;69.43;102381.50;4944028;28;45416;-63
2021/10/07 04:12:51;;;;;;;;;3.00;3.00;;;;;12.89;69.38;102389.56;4944452;28;45317;-63
2021/10/07 04:15:17;;;;;;;;;7.25;4.75;;;;;12.83;69.35;102389.81;4944105;28;45358;-63
2021/10/07 04:17:42;;;;;;;;;9.50;5.00;;;;;12.79;69.49;102383.78;4944128;28;45975;-63
2021/10/07 04:20:08;;;;;;;;;8.50;5.75;;;;;12.76;69.63;102386.56;4943822;28;45419;-63
2021/10/07 04:22:34;;;;;;;;;8.75;6.00;;;;;12.74;69.64;102383.13;4944232;28;45378;-63
2021/10/07 04:24:59;;;;;;;;;9.75;5.50;;;;;12.70;69.67;102389.47;4943975;28;45295;-63
2021/10/07 04:27:25;;;;;;;;;11.75;4.50;;;;;12.68;69.95;102385.16;4944065;28;45398;-63
2021/10/07 04:29:50;;;;;;;;;8.50;6.25;;;;;12.73;69.81;102391.13;4943783;28;45258;-63
2021/10/07 04:32:16;;;;;;;;;8.25;6.00;;;;;12.72;69.93;102390.28;4943866;28;45174;-63
2021/10/07 04:34:41;;;;;;;;;9.75;7.50;;;;;12.73;69.80;102383.22;4943576;28;45228;-63
2021/10/07 04:37:07;;;;;;;;;5.50;5.00;;;;;12.72;69.71;102397.34;4943764;28;45544;-63
2021/10/07 04:39:33;;;;;;;;;5.75;5.50;;;;;12.70;69.87;102380.66;4950872;28;45204;-63
2021/10/07 04:41:59;;;;;;;;;7.75;5.50;;;;;12.71;69.76;102385.88;4956186;28;45285;-63
2021/10/07 04:44:24;;;;;;;;;6.00;4.00;;;;;12.72;69.74;102389.44;4943784;28;45250;-63
2021/10/07 04:46:50;;;;;;;;;9.25;4.25;;;;;12.71;69.94;102392.97;4942804;28;45604;-63
2021/10/07 04:49:15;;;;;;;;;9.50;7.25;;;;;12.68;69.80;102390.47;4943403;28;45303;-63
2021/10/07 04:51:41;;;;;;;;;5.75;5.75;;;;;12.67;69.72;102392.25;4948486;28;45309;-63
2021/10/07 04:54:06;;;;;;;;;5.25;4.00;;;;;12.66;69.96;102382.59;4963023;28;45341;-63
2021/10/07 04:56:32;;;;;;;;;6.25;5.00;;;;;12.66;69.82;102381.75;4962790;28;46046;-63
2021/10/07 04:58:58;;;;;;;;;10.25;6.00;;;;;12.65;69.96;102378.25;4962782;28;45467;-63
2021/10/07 05:01:23;;;;;;;;;9.50;5.00;;;;;12.67;69.84;102386.09;4962784;28;45468;-63
2021/10/07 05:03:50;;;;;;;;;7.00;4.75;;;;;12.66;69.95;102382.59;4962662;28;45500;-63
2021/10/07 05:06:16;;;;;;;;;6.25;4.50;;;;;12.64;70.43;102392.38;4962737;28;46396;-63
2021/10/07 05:08:42;;;;;;;;;11.75;6.50;;;;;12.63;69.45;102388.00;4962700;28;45253;-63
2021/10/07 05:11:07;;;;;;;;;8.00;5.00;;;;;12.64;69.93;102397.69;4962546;28;45274;-63
2021/10/07 05:13:33;;;;;;;;;9.00;5.00;;;;;12.63;70.00;102401.22;4962863;28;45273;-64
2021/10/07 05:15:59;;;;;;;;;7.50;4.75;;;;;12.66;70.16;102405.53;4962389;28;45354;-63
2021/10/07 05:18:24;;;;;;;;;7.25;4.50;;;;;12.68;70.14;102412.47;4962440;28;45241;-64
2021/10/07 05:20:51;;;;;;;;;8.50;4.00;;;;;12.70;69.99;102410.63;4962505;28;45441;-63
2021/10/07 05:23:17;;;;;;;;;5.00;4.50;;;;;12.70;69.99;102413.25;4962798;28;45322;-63
2021/10/07 05:25:43;;;;;;;;;10.75;4.00;;;;;12.69;70.02;102414.19;4962377;28;45344;-63
2021/10/07 05:28:09;;;;;;;;;5.00;5.00;;;;;12.69;70.00;102424.75;4962367;28;45317;-62
2021/10/07 05:30:35;;;;;;;;;8.50;4.75;;;;;12.67;69.88;102420.47;4962344;28;45365;-63
2021/10/07 05:33:01;;;;;;;;;15.00;9.00;;;;;12.66;70.01;102426.69;4962313;28;45234;-63
2021/10/07 05:35:27;;;;;;;;;10.75;8.00;;;;;12.64;70.04;102421.47;4961987;28;45329;-63
2021/10/07 05:37:53;;;;;;;;;6.50;6.00;;;;;12.65;70.08;102430.25;4962272;28;45318;-62
2021/10/07 05:40:18;;;;;;;;;7.50;5.25;;;;;12.64;70.12;102425.88;4961716;28;45277;-64
2021/10/07 05:42:44;;;;;;;;;7.25;5.75;;;;;12.62;70.11;102425.06;4949273;28;45378;-63
2021/10/07 05:45:10;;;;;;;;;6.75;5.50;;;;;12.62;69.87;102436.50;4942505;28;46295;-63
2021/10/07 05:47:40;;;;;;;;;10.75;5.50;;;;;12.61;69.94;102434.78;4942600;28;45374;-63
2021/10/07 05:50:08;;;;;;;;;12.25;9.25;;;;;12.59;70.08;102428.72;4942481;28;45316;-64
2021/10/07 05:52:33;;;;;;;;;12.50;9.50;;;;;12.55;70.20;102433.25;4952334;28;45198;-64
2021/10/07 05:54:59;;;;;;;;;12.25;9.75;;;;;12.53;70.33;102435.09;4961080;28;45424;-64
2021/10/07 05:57:25;;;;;;;;;12.00;11.00;;;;;12.54;70.03;102428.03;4959883;28;45396;-64
2021/10/07 05:59:51;;;;;;;;;13.75;9.75;;;;;12.55;70.33;102430.59;4961362;28;45421;-65
2021/10/07 06:02:17;;;;;;;;;16.75;10.50;;;;;12.56;70.02;102436.78;4961384;28;45564;-62
2021/10/07 06:04:43;;;;;;;;;20.25;10.50;;;;;12.56;70.12;102444.72;4961357;28;46107;-63
2021/10/07 06:07:08;;;;;;;;;17.75;15.00;;;;;12.53;70.08;102436.88;4956675;28;45454;-64
2021/10/07 06:09:34;;;;;;;;;17.50;9.50;;;;;12.51;70.25;102442.25;4953892;28;45414;-64
2021/10/07 06:11:59;;;;;;;;;16.00;11.75;;;;;12.53;70.31;102444.81;4954831;28;45567;-64
2021/10/07 06:14:25;;;;;;;;;16.25;11.00;;;;;12.50;70.41;102442.31;4953809;28;46076;-64
2021/10/07 06:16:54;;;;;;;;;15.50;12.00;;;;;12.51;70.24;102449.31;4953191;28;45438;-64
2021/10/07 06:19:23;;;;;;;;;26.50;13.00;;;;;12.48;70.30;102454.69;4950486;28;45453;-64
2021/10/07 06:21:52;;;;;;;;;23.75;15.25;;;;;12.49;70.72;102454.66;4954507;28;45409;-64
2021/10/07 06:24:19;;;;;;;;;19.00;15.00;;;;;12.51;70.46;102455.47;4950874;28;46435;-64
2021/10/07 06:26:45;;;;;;;;;14.75;12.25;;;;;12.53;70.52;102456.25;4954682;28;45424;-64
2021/10/07 06:29:11;;;;;;;;;18.75;13.50;;;;;12.55;70.44;102451.75;4952473;28;45313;-64
2021/10/07 06:31:38;;;;;;;;;20.00;12.75;;;;;12.58;70.37;102453.44;4954020;28;45567;-63
2021/10/07 06:34:05;;;;;;;;;26.25;15.00;;;;;12.60;70.33;102459.50;4951897;28;45538;-63
2021/10/07 06:36:31;;;;;;;;;19.00;12.50;;;;;12.64;70.39;102447.00;4954902;28;45288;-64
2021/10/07 06:38:56;;;;;;;;;19.50;17.00;;;;;12.70;70.35;102452.91;4953138;28;45500;-64
2021/10/07 06:41:22;;;;;;;;;19.00;11.75;;;;;12.76;70.34;102446.53;4950473;28;45164;-64
2021/10/07 06:43:49;;;;;;;;;15.25;8.25;;;;;12.83;70.21;102451.50;4952053;28;46091;-64
2021/10/07 06:46:14;;;;;;;;;17.00;10.00;;;;;12.90;70.10;102445.97;4950477;28;45226;-64
2021/10/07 06:48:40;;;;;;;;;18.50;10.00;;;;;12.97;70.00;102444.78;4951807;28;45381;-64
2021/10/07 06:51:09;;;;;;;;;10.00;9.00;;;;;12.99;69.82;102449.09;4952345;28;45330;-64
2021/10/07 06:53:37;;;;;;;;;8.25;8.00;;;;;13.02;69.75;102453.38;4951653;28;48056;-64
2021/10/07 06:56:04;;;;;;;;;14.00;8.50;;;;;13.05;69.91;102458.56;4950763;28;45472;-64
2021/10/07 06:58:29;;;;;;;;;7.00;6.25;;;;;13.08;69.64;102458.41;4952483;28;45287;-64
2021/10/07 07:00:55;;;;;;;;;11.00;6.00;;;;;13.09;69.50;102458.34;4952309;28;45556;-64
2021/10/07 07:03:20;;;;;;;;;8.75;6.50;;;;;13.12;69.48;102467.97;4950678;28;45385;-64
2021/10/07 07:05:45;;;;;;;;;11.50;10.00;;;;;13.15;69.58;102465.16;4949422;28;45330;-64
2021/10/07 07:08:11;;;;;;;;;12.50;9.50;;;;;13.19;69.22;102464.09;4951387;28;45314;-64
2021/10/07 07:10:37;;;;;;;;;7.50;5.00;;;;;13.23;69.28;102471.03;4953570;28;45477;-64
2021/10/07 07:13:05;;;;;;;;;6.75;6.50;;;;;13.25;69.16;102469.16;4956127;28;45445;-64
2021/10/07 07:15:32;;;;;;;;;18.00;8.75;;;;;13.31;69.21;102476.84;4952428;28;45310;-64
2021/10/07 07:17:57;;;;;;;;;10.00;7.25;;;;;13.34;69.05;102474.06;4953936;28;45184;-64
2021/10/07 07:20:24;;;;;;;;;11.00;7.00;;;;;13.35;69.15;102470.50;4954174;28;45301;-64
2021/10/07 07:22:49;;;;;;;;;15.50;10.00;;;;;13.38;68.94;102480.09;4956127;28;45391;-64
2021/10/07 07:25:16;;;;;;;;;9.50;6.25;;;;;13.44;68.93;102478.97;4953045;28;45334;-63
2021/10/07 07:27:41;;;;;;;;;14.50;11.00;;;;;13.48;68.98;102475.25;4953301;28;45282;-64
2021/10/07 07:30:07;;;;;;;;;13.00;11.50;;;;;13.49;68.88;102472.53;4953107;28;45520;-64
2021/10/07 07:32:33;;;;;;;;;16.25;12.50;;;;;13.52;69.08;102479.50;4956415;28;45490;-64
2021/10/07 07:34:59;;;;;;;;;18.25;13.00;;;;;13.54;69.10;102478.50;4953749;28;45383;-64
2021/10/07 07:37:24;;;;;;;;;10.25;7.50;;;;;13.59;68.95;102480.97;4953118;28;45421;-64
2021/10/07 07:39:50;;;;;;;;;16.75;11.25;;;;;13.64;68.87;102477.16;4953981;28;45438;-64
2021/10/07 07:42:15;;;;;;;;;11.00;10.00;;;;;13.73;69.10;102475.03;4954118;28;45404;-64
2021/10/07 07:44:42;;;;;;;;;7.50;2.50;;;;;13.78;68.69;102481.84;4967818;28;45434;-64
2021/10/07 07:47:08;;;;;;;;;11.50;9.00;;;;;13.86;68.53;102477.06;4954830;28;45440;-64
2021/10/07 07:49:34;;;;;;;;;13.75;9.75;;;;;13.96;68.68;102477.50;4954150;28;45417;-64
2021/10/07 07:51:59;;;;;;;;;9.75;8.75;;;;;14.04;68.37;102480.66;4953971;28;45638;-64
2021/10/07 07:54:25;;;;;;;;;12.00;10.25;;;;;14.14;68.31;102483.72;4953003;28;45407;-64
2021/10/07 07:56:50;;;;;;;;;13.00;10.00;;;;;14.22;67.95;102481.63;4969840;28;45327;-64
2021/10/07 07:59:16;;;;;;;;;11.25;8.00;;;;;14.33;68.15;102492.56;4954004;28;45310;-64
2021/10/07 08:01:43;;;;;;;;;13.50;9.50;;;;;14.42;67.93;102485.97;4955220;28;45874;-63
2021/10/07 08:04:08;;;;;;;;;13.00;9.75;;;;;14.47;67.78;102492.81;4955611;28;45435;-64
2021/10/07 08:06:36;;;;;;;;;14.25;11.75;;;;;14.54;67.41;102492.53;4957440;28;45309;-64
2021/10/07 08:09:04;;;;;;;;;15.50;10.50;;;;;14.61;67.41;102491.28;4957907;28;45438;-63
2021/10/07 08:11:30;;;;;;;;;19.00;12.00;;;;;14.66;67.31;102498.09;4956214;28;45397;-63
2021/10/07 08:13:58;;;;;;;;;14.00;11.50;;;;;14.72;67.14;102496.94;4952295;28;45484;-63
2021/10/07 08:16:24;;;;;;;;;15.50;11.75;;;;;14.77;67.14;102502.84;4953000;28;45369;-63
2021/10/07 08:18:50;;;;;;;;;15.25;12.25;;;;;14.82;67.10;102500.84;4953291;28;45405;-63
2021/10/07 08:21:15;;;;;;;;;16.50;13.50;;;;;14.88;66.75;102507.66;4953095;28;47629;-63
2021/10/07 08:23:41;;;;;;;;;16.00;14.00;;;;;14.97;66.84;102508.06;4952260;28;45515;-64
2021/10/07 08:26:06;;;;;;;;;23.25;14.50;;;;;15.05;66.64;102513.00;4952654;28;45429;-65
2021/10/07 08:28:32;;;;;;;;;16.50;13.00;;;;;15.15;66.72;102516.03;4953416;28;45508;-64
2021/10/07 08:30:57;;;;;;;;;18.00;13.75;;;;;15.22;66.27;102513.00;4952384;28;45947;-64
2021/10/07 08:33:23;;;;;;;;;25.75;14.00;;;;;15.29;66.55;102514.41;4952207;28;45401;-64
2021/10/07 08:35:50;;;;;;;;;13.50;12.75;;;;;15.38;66.09;102510.41;4952213;28;45408;-64
2021/10/07 08:38:17;;;;;;;;;21.00;16.00;;;;;15.45;66.13;102508.31;4966752;28;45442;-64
2021/10/07 08:40:43;;;;;;;;;25.50;15.50;;;;;15.50;66.15;102519.56;4952578;28;46258;-64
2021/10/07 08:43:09;;;;;;;;;25.25;16.75;;;;;15.53;66.04;102520.25;4952988;28;45379;-64
2021/10/07 08:45:35;;;;;;;;;17.75;14.50;;;;;15.55;65.84;102512.19;4953034;28;45374;-64
2021/10/07 08:48:00;;;;;;;;;19.00;13.00;;;;;15.55;65.79;102517.50;4953053;28;45215;-64
2021/10/07 08:50:26;;;;;;;;;18.50;13.50;;;;;15.55;65.70;102510.41;4953065;28;45227;-64
2021/10/07 08:52:52;;;;;;;;;16.50;13.75;;;;;15.61;65.68;102517.22;4953493;28;45214;-64
2021/10/07 08:55:18;;;;;;;;;19.00;13.75;;;;;15.69;65.64;102508.88;4953199;28;45251;-64
2021/10/07 08:57:44;;;;;;;;;18.25;14.50;;;;;15.79;65.76;102510.94;4952780;28;45408;-64
2021/10/07 09:00:12;;;;;;;;;18.25;14.50;;;;;15.91;65.61;102510.31;4954908;28;46107;-64
2021/10/07 09:02:38;;;;;;;;;20.00;14.25;;;;;16.01;65.07;102515.97;4951712;28;45429;-64
2021/10/07 09:05:19;;;;;;;;;27.25;25.25;;;;;16.12;65.02;102512.75;4951814;28;45385;-64
2021/10/07 09:08:08;;;;;;;;;19.25;17.00;;;;;16.24;64.75;102508.56;4952325;28;45211;-64
2021/10/07 09:10:56;;;;;;;;;23.75;13.50;;;;;16.33;64.58;102516.03;4953467;28;46158;-64
2021/10/07 09:13:28;;;;;;;;;23.50;14.25;;;;;16.40;64.36;102518.28;4950798;28;45504;-64
2021/10/07 09:15:56;;;;;;;;;21.75;16.00;;;;;16.48;64.26;102525.81;4952157;28;45339;-64
2021/10/07 09:18:24;;;;;;;;;24.00;14.00;;;;;16.58;64.43;102520.84;4952175;28;45473;-64
2021/10/07 09:20:52;;;;;;;;;21.25;15.75;;;;;16.63;63.98;102519.66;4951583;28;46351;-64
2021/10/07 09:23:33;;;;;;;;;19.00;14.00;;;;;16.67;63.92;102515.88;4953788;28;45498;-64
2021/10/07 09:26:12;;;;;;;;;24.00;15.50;;;;;16.66;64.01;102507.97;4952185;28;45259;-64
2021/10/07 09:28:52;;;;;;;;;19.50;15.75;;;;;16.72;64.04;102512.97;4951332;28;45472;-64
2021/10/07 09:31:30;;;;;;;;;13.00;7.50;;;;;16.76;63.87;102508.34;4953015;28;45596;-64
2021/10/07 09:34:00;;;;;;;;;16.25;13.50;;;;;16.83;63.65;102502.59;4954681;28;45341;-64
2021/10/07 09:36:25;;;;;;;;;15.25;13.00;;;;;16.90;63.63;102498.59;4951810;28;45184;-64
2021/10/07 09:38:54;;;;;;;;;15.25;11.50;;;;;16.96;63.40;102492.94;4954694;28;45329;-63
2021/10/07 09:41:27;;;;;;;;;15.75;15.00;;;;;17.01;63.23;102490.00;4953343;28;46154;-64
2021/10/07 09:43:54;;;;;;;;;15.50;13.25;;;;;17.06;63.29;102497.72;4951556;28;45386;-64
2021/10/07 09:46:40;;;;;;;;;21.00;14.50;;;;;17.06;62.93;102495.06;4951496;28;45573;-64
2021/10/07 09:49:10;;;;;;;;;15.75;10.75;;;;;17.06;63.14;102493.25;4952324;28;45491;-64
2021/10/07 09:51:41;;;;;;;;;15.00;12.75;;;;;17.11;63.20;102498.31;4954615;28;45500;-64
2021/10/07 09:54:06;;;;;;;;;10.75;8.50;;;;;17.17;63.10;102500.63;4951285;28;45471;-64
2021/10/07 09:56:33;;;;;;;;;13.75;8.75;;;;;17.25;63.07;102493.03;4952094;28;45452;-63
2021/10/07 09:59:10;;;;;;;;;7.00;5.50;;;;;17.30;63.00;102489.16;4952827;28;45395;-63
2021/10/07 10:01:38;;;;;;;;;10.25;5.50;;;;;17.36;62.95;102495.91;4952808;28;45519;-63
2021/10/07 10:04:04;;;;;;;;;10.00;8.00;;;;;17.39;62.53;102484.22;4954558;28;45436;-63
2021/10/07 10:06:31;;;;;;;;;9.25;5.75;;;;;17.37;62.49;102494.09;4954726;28;45425;-64
2021/10/07 10:08:56;;;;;;;;;10.00;6.25;;;;;17.35;62.47;102488.88;4957215;28;45536;-64
2021/10/07 10:11:22;;;;;;;;;16.50;9.00;;;;;17.35;62.26;102485.34;4954669;28;45508;-63
2021/10/07 10:13:49;;;;;;;;;8.50;6.00;;;;;17.38;62.09;102482.47;4950418;28;45325;-64
2021/10/07 10:16:18;;;;;;;;;5.75;4.00;;;;;17.45;62.51;102487.34;4952041;28;45410;-64
2021/10/07 10:18:51;;;;;;;;;10.75;5.50;;;;;17.52;62.19;102485.19;4951642;28;45202;-64
2021/10/07 10:21:17;;;;;;;;;7.50;6.00;;;;;17.56;61.94;102492.06;4950279;28;46361;-65
2021/10/07 10:23:44;;;;;;;;;9.25;5.00;;;;;17.58;62.24;102484.81;4950629;28;45439;-64
2021/10/07 10:26:12;;;;;;;;;9.00;6.25;;;;;17.59;62.07;102484.72;4950378;28;45569;-64
2021/10/07 10:28:46;;;;;;;;;9.50;5.50;;;;;17.61;61.95;102489.94;4949872;28;45485;-64
2021/10/07 10:31:17;;;;;;;;;10.50;6.00;;;;;17.61;61.55;102481.09;4951708;28;45392;-64
2021/10/07 10:33:47;;;;;;;;;9.75;6.25;;;;;17.64;61.57;102487.13;4949587;28;45460;-64
2021/10/07 10:36:39;;;;;;;;;8.50;5.50;;;;;17.72;61.38;102487.53;4953604;28;45440;-64
2021/10/07 10:39:15;;;;;;;;;5.75;3.50;;;;;17.78;61.02;102488.97;4936582;28;45460;-65
2021/10/07 10:41:59;;;;;;;;;4.50;4.25;;;;;17.80;60.68;102487.06;4950869;28;46037;-64
2021/10/07 10:44:28;;;;;;;;;4.25;2.75;;;;;17.81;60.45;102489.63;4967732;28;46284;-65
2021/10/07 10:47:06;;;;;;;;;6.50;3.25;;;;;17.83;60.66;102486.84;4954673;28;45389;-64
2021/10/07 10:49:36;;;;;;;;;3.25;2.25;;;;;17.87;60.07;102479.53;4955228;28;45371;-65
2021/10/07 10:52:25;;;;;;;;;5.00;3.00;;;;;17.89;60.05;102486.47;4954711;28;45926;-64
2021/10/07 10:54:56;;;;;;;;;5.75;4.00;;;;;17.95;59.76;102472.78;4955486;28;45247;-64
2021/10/07 10:57:30;;;;;;;;;4.75;3.75;;;;;18.00;59.94;102476.00;4956338;28;45416;-64
2021/10/07 11:00:11;;;;;;;;;7.00;3.50;;;;;18.09;59.57;102483.44;4957677;28;45560;-64
2021/10/07 11:02:38;;;;;;;;;6.25;4.25;;;;;18.14;59.24;102475.13;4952815;28;46044;-64
2021/10/07 11:05:22;;;;;;;;;5.00;3.25;;;;;18.21;59.00;102483.59;4955603;28;45428;-64
2021/10/07 11:08:13;;;;;;;;;6.50;5.00;;;;;18.26;59.40;102477.03;4954804;28;45538;-64
2021/10/07 11:10:44;;;;;;;;;5.75;4.50;;;;;18.35;58.93;102480.91;4957144;28;45669;-64
2021/10/07 11:13:14;;;;;;;;;12.50;10.25;;;;;18.46;59.07;102480.22;4955714;28;46560;-62
2021/10/07 11:15:40;;;;;;;;;4.00;3.25;;;;;18.50;58.89;102479.91;4953139;28;45329;-69
2021/10/07 11:18:06;;;;;;;;;10.25;7.75;;;;;18.49;58.18;102474.69;4956373;28;45251;-66
2021/10/07 11:20:34;;;;;;;;;7.75;5.00;;;;;18.48;58.61;102475.63;4957351;28;45488;-63
2021/10/07 11:23:07;;;;;;;;;6.75;5.00;;;;;18.41;58.12;102483.19;4948103;28;45639;-63
2021/10/07 11:25:39;;;;;;;;;4.50;4.00;;;;;18.40;58.48;102484.97;4964185;28;45211;-66